Time;durP1;ratioP1;P1;durP2;ratioP2;P2;SDS_P1;SDS_P2;PMS_P1;PMS_P2;Temp;Humidity;BMP_temperature;BMP_pressure;BME280_temperature;BME280_humidity;BME280_pressure;Samples;Min_cycle;Max_cycle;Signal;HPM_P1;HPM_P2
2022/12/12 06:00:24;;;;;;;29.27;26.13;;;-1.20;97.20;;;;;;1720157;28;20601;-73
2022/12/12 06:01:15;;;;;;;29.95;26.20;;;-1.20;97.20;;;;;;1720671;28;20678;-73
2022/12/12 06:02:07;;;;;;;26.53;23.53;;;-1.20;97.20;;;;;;1720241;28;20670;-73
2022/12/12 06:02:57;;;;;;;31.33;26.42;;;-1.20;97.20;;;;;;1720706;28;20205;-73
2022/12/12 06:03:49;;;;;;;29.70;25.70;;;-1.20;97.20;;;;;;1720733;28;20193;-72
2022/12/12 06:04:40;;;;;;;28.58;25.50;;;-1.20;97.20;;;;;;1720681;28;20690;-73
2022/12/12 06:05:32;;;;;;;30.00;26.85;;;-1.20;97.20;;;;;;1720750;28;20608;-72
2022/12/12 06:06:24;;;;;;;30.23;25.60;;;-1.20;97.20;;;;;;1720635;28;20205;-73
2022/12/12 06:07:15;;;;;;;27.73;24.65;;;-1.20;97.20;;;;;;1719735;28;20201;-73
2022/12/12 06:08:06;;;;;;;31.30;27.43;;;-1.30;97.20;;;;;;1720314;28;20686;-72
2022/12/12 06:08:57;;;;;;;30.70;26.67;;;-1.30;97.20;;;;;;1720098;28;20204;-72
2022/12/12 06:09:49;;;;;;;31.10;27.70;;;-1.20;97.20;;;;;;1720524;28;20199;-72
2022/12/12 06:10:40;;;;;;;33.10;29.48;;;-1.30;97.20;;;;;;1720020;28;20217;-72
2022/12/12 06:11:31;;;;;;;37.93;32.50;;;-1.30;97.20;;;;;;1720637;28;20219;-73
2022/12/12 06:12:22;;;;;;;44.38;38.40;;;-1.30;97.20;;;;;;1720606;28;20216;-72
2022/12/12 06:13:14;;;;;;;49.73;41.50;;;-1.30;97.20;;;;;;1720583;28;20201;-73
2022/12/12 06:14:05;;;;;;;45.15;38.10;;;-1.30;97.20;;;;;;1720636;28;20463;-73
2022/12/12 06:14:56;;;;;;;39.27;33.10;;;-1.30;97.20;;;;;;1720605;28;20211;-73
2022/12/12 06:15:48;;;;;;;39.75;33.60;;;-1.30;97.20;;;;;;1720730;28;20205;-72
2022/12/12 06:16:40;;;;;;;38.88;32.63;;;-1.30;97.20;;;;;;1720316;28;20201;-73
2022/12/12 06:17:31;;;;;;;41.45;35.50;;;-1.30;97.20;;;;;;1720653;28;20205;-73
2022/12/12 06:18:23;;;;;;;32.45;28.98;;;-1.30;97.20;;;;;;1720645;28;20229;-73
2022/12/12 06:19:14;;;;;;;35.47;30.27;;;-1.30;97.20;;;;;;1720721;28;20580;-73
2022/12/12 06:20:06;;;;;;;33.23;29.57;;;-1.30;97.20;;;;;;1718194;28;20543;-73
2022/12/12 06:21:02;;;;;;;32.88;29.40;;;-1.30;97.20;;;;;;1720420;28;20554;-73
2022/12/12 06:21:53;;;;;;;34.88;30.80;;;-1.30;97.20;;;;;;1720567;28;20209;-73
2022/12/12 06:22:45;;;;;;;36.90;30.80;;;-1.30;97.20;;;;;;1720672;28;20201;-73
2022/12/12 06:23:36;;;;;;;34.42;30.67;;;-1.30;97.20;;;;;;1720546;28;20666;-73
2022/12/12 06:24:28;;;;;;;33.75;30.15;;;-1.30;97.20;;;;;;1720368;28;20201;-73
2022/12/12 06:25:19;;;;;;;35.35;31.55;;;-1.30;97.20;;;;;;1720636;28;20228;-73
2022/12/12 06:26:13;;;;;;;35.30;30.23;;;-1.30;97.20;;;;;;1720718;28;20197;-73
2022/12/12 06:27:03;;;;;;;32.40;27.25;;;-1.20;97.20;;;;;;1720477;28;20205;-73
2022/12/12 06:27:55;;;;;;;32.60;28.20;;;-1.20;97.20;;;;;;1720584;28;20205;-73
2022/12/12 06:28:46;;;;;;;34.78;28.77;;;-1.30;97.20;;;;;;1720601;28;20205;-73
2022/12/12 06:29:38;;;;;;;31.70;28.15;;;-1.30;97.20;;;;;;1720604;28;20201;-72
2022/12/12 06:30:29;;;;;;;36.10;29.77;;;-1.30;97.20;;;;;;1719954;28;20205;-72
2022/12/12 06:31:22;;;;;;;34.23;30.60;;;-1.30;97.20;;;;;;1720534;28;20200;-73
2022/12/12 06:32:12;;;;;;;35.08;31.38;;;-1.30;97.20;;;;;;1720590;28;20204;-73
2022/12/12 06:33:04;;;;;;;35.70;31.80;;;-1.30;97.20;;;;;;1720640;28;20211;-72
2022/12/12 06:33:55;;;;;;;34.13;29.15;;;-1.30;97.20;;;;;;1720546;28;20705;-72
2022/12/12 06:34:47;;;;;;;33.75;30.15;;;-1.40;97.20;;;;;;1720612;28;20212;-72
2022/12/12 06:35:38;;;;;;;34.20;29.13;;;-1.30;97.20;;;;;;1720597;28;20578;-73
2022/12/12 06:36:29;;;;;;;34.37;28.07;;;-1.30;97.20;;;;;;1720510;28;20200;-73
2022/12/12 06:37:20;;;;;;;34.90;30.55;;;-1.30;97.20;;;;;;1720396;28;20216;-73
2022/12/12 06:38:12;;;;;;;35.63;30.73;;;-1.30;97.20;;;;;;1720510;28;20205;-73
2022/12/12 06:39:03;;;;;;;31.35;28.00;;;-1.30;97.20;;;;;;1720589;28;20456;-73
2022/12/12 06:39:54;;;;;;;33.10;28.67;;;-1.30;97.20;;;;;;1719864;28;20197;-73
2022/12/12 06:40:45;;;;;;;35.92;31.10;;;-1.30;97.20;;;;;;1720433;28;20720;-73
2022/12/12 06:41:38;;;;;;;35.47;31.13;;;-1.30;97.20;;;;;;1719991;28;20565;-73
2022/12/12 06:42:29;;;;;;;34.10;29.70;;;-1.30;97.20;;;;;;1720521;28;20212;-72
2022/12/12 06:43:21;;;;;;;35.63;29.80;;;-1.30;97.20;;;;;;1720494;28;20201;-72
2022/12/12 06:44:11;;;;;;;35.30;29.27;;;-1.30;97.20;;;;;;1720423;28;20209;-73
2022/12/12 06:45:04;;;;;;;36.30;30.70;;;-1.20;97.20;;;;;;1720536;28;20205;-72
2022/12/12 06:45:59;;;;;;;33.55;29.70;;;-1.20;97.20;;;;;;1719948;28;20193;-73
2022/12/12 06:46:52;;;;;;;29.33;26.20;;;-1.20;97.20;;;;;;1720334;28;20192;-73
2022/12/12 06:47:43;;;;;;;34.10;29.25;;;-1.20;97.20;;;;;;1720579;28;20205;-73
2022/12/12 06:48:35;;;;;;;32.93;29.30;;;-1.20;97.20;;;;;;1720439;28;20207;-73
2022/12/12 06:49:27;;;;;;;33.58;28.10;;;-1.20;97.20;;;;;;1720570;28;20582;-73
2022/12/12 06:50:18;;;;;;;36.90;31.40;;;-1.20;97.20;;;;;;1719863;28;20216;-73
2022/12/12 06:51:13;;;;;;;35.53;30.47;;;-1.20;97.20;;;;;;1720541;28;20211;-73
2022/12/12 06:52:04;;;;;;;36.95;30.45;;;-1.20;97.20;;;;;;1720605;28;20209;-73
2022/12/12 06:52:56;;;;;;;33.93;30.10;;;-1.20;97.20;;;;;;1720427;28;20667;-73
2022/12/12 06:53:47;;;;;;;36.28;30.83;;;-1.20;97.20;;;;;;1720547;28;20212;-72
2022/12/12 06:54:39;;;;;;;30.40;27.10;;;-1.20;97.20;;;;;;1720529;28;20224;-72
2022/12/12 06:55:30;;;;;;;35.20;29.10;;;-1.20;97.20;;;;;;1720496;28;20205;-72
2022/12/12 06:56:23;;;;;;;38.90;32.00;;;-1.20;97.20;;;;;;1720496;28;20205;-72
2022/12/12 06:57:14;;;;;;;37.13;30.48;;;-1.10;97.20;;;;;;1720152;28;20216;-73
2022/12/12 06:58:05;;;;;;;35.10;30.37;;;-1.10;97.20;;;;;;1720377;28;20204;-72
2022/12/12 06:58:58;;;;;;;37.70;30.17;;;-1.10;97.20;;;;;;1720246;28;20218;-72
2022/12/12 06:59:50;;;;;;;39.90;31.80;;;-1.20;97.20;;;;;;1720519;28;20201;-73
2022/12/12 07:00:41;;;;;;;38.97;31.52;;;-1.20;97.20;;;;;;1719576;28;20665;-73
2022/12/12 07:01:33;;;;;;;40.57;32.70;;;-1.20;97.20;;;;;;1720249;28;20210;-73
2022/12/12 07:02:25;;;;;;;39.45;32.40;;;-1.20;97.20;;;;;;1720493;28;20212;-72
2022/12/12 07:03:17;;;;;;;40.67;33.83;;;-1.20;97.20;;;;;;1720407;28;20379;-72
2022/12/12 07:04:09;;;;;;;36.53;29.15;;;-1.20;97.20;;;;;;1720446;28;20217;-73
2022/12/12 07:05:01;;;;;;;32.55;27.70;;;-1.20;97.20;;;;;;1720520;28;20260;-73
2022/12/12 07:05:52;;;;;;;33.70;28.35;;;-1.20;97.20;;;;;;1720619;28;20565;-73
2022/12/12 07:06:44;;;;;;;39.70;31.63;;;-1.20;97.20;;;;;;1720315;28;20629;-73
2022/12/12 07:07:35;;;;;;;38.13;30.70;;;-1.20;97.20;;;;;;1720468;28;20208;-73
2022/12/12 07:08:27;;;;;;;42.53;33.60;;;-1.20;97.20;;;;;;1720415;28;20201;-72
2022/12/12 07:09:18;;;;;;;43.72;35.65;;;-1.10;97.20;;;;;;1720467;28;20212;-73
2022/12/12 07:10:10;;;;;;;39.93;31.37;;;-1.10;97.20;;;;;;1719913;28;20212;-73
2022/12/12 07:11:03;;;;;;;38.60;32.88;;;-1.20;97.20;;;;;;1720281;28;20228;-73
2022/12/12 07:11:56;;;;;;;41.58;34.17;;;-1.20;97.20;;;;;;1720225;28;20803;-73
2022/12/12 07:12:47;;;;;;;35.85;30.02;;;-1.20;97.20;;;;;;1720204;28;20667;-73
2022/12/12 07:13:39;;;;;;;35.10;29.03;;;-1.20;97.20;;;;;;1720311;28;20572;-73
2022/12/12 07:14:30;;;;;;;36.90;31.92;;;-1.10;97.20;;;;;;1721317;28;20251;-73
2022/12/12 07:15:22;;;;;;;35.13;29.43;;;-1.10;97.20;;;;;;1721930;28;20197;-73
2022/12/12 07:16:14;;;;;;;35.90;29.45;;;-1.10;97.20;;;;;;1721758;28;21056;-73
2022/12/12 07:17:05;;;;;;;39.90;31.63;;;-1.10;97.20;;;;;;1721564;28;20197;-73
2022/12/12 07:17:57;;;;;;;41.63;34.03;;;-1.10;97.20;;;;;;1721712;28;20674;-73
2022/12/12 07:18:49;;;;;;;35.22;29.83;;;-1.00;97.20;;;;;;1721781;28;20209;-73
2022/12/12 07:19:40;;;;;;;36.30;29.70;;;-1.00;97.20;;;;;;1721723;28;20212;-73
2022/12/12 07:20:32;;;;;;;34.50;28.13;;;-1.00;97.20;;;;;;1721212;28;20244;-73
2022/12/12 07:21:23;;;;;;;35.63;28.95;;;-1.00;97.20;;;;;;1721760;28;20243;-73
2022/12/12 07:22:14;;;;;;;36.30;28.93;;;-1.00;97.20;;;;;;1721781;28;20201;-73
2022/12/12 07:23:05;;;;;;;39.22;31.65;;;-1.00;97.20;;;;;;1721814;28;20447;-73
2022/12/12 07:23:57;;;;;;;34.40;27.23;;;-1.00;97.20;;;;;;1721661;28;20207;-73
2022/12/12 07:24:49;;;;;;;33.00;29.20;;;-1.00;97.20;;;;;;1721745;28;20945;-73
2022/12/12 07:25:43;;;;;;;36.88;28.80;;;-1.00;97.20;;;;;;1721683;28;20201;-74
2022/12/12 07:26:34;;;;;;;44.20;34.47;;;-1.00;97.20;;;;;;1721556;28;20231;-73
2022/12/12 07:31:00;;;;;;;32.08;28.88;;;-0.90;97.20;;;;;;1720719;28;20649;-73
2022/12/12 07:31:52;;;;;;;31.83;28.48;;;-0.90;97.20;;;;;;1721644;28;20254;-73
2022/12/12 07:32:43;;;;;;;31.63;28.33;;;-0.90;97.20;;;;;;1721782;28;20205;-73
2022/12/12 07:33:36;;;;;;;34.73;27.70;;;-0.90;97.20;;;;;;1721425;28;20211;-73
2022/12/12 07:34:28;;;;;;;35.38;30.60;;;-0.90;97.20;;;;;;1721782;28;20213;-73
2022/12/12 07:35:19;;;;;;;33.05;28.55;;;-0.90;97.20;;;;;;1721640;28;20207;-73
2022/12/12 07:36:10;;;;;;;39.13;31.38;;;-0.90;97.20;;;;;;1721681;28;20700;-73
2022/12/12 07:37:03;;;;;;;34.40;29.40;;;-0.90;97.20;;;;;;1721540;28;20205;-73
2022/12/12 07:37:55;;;;;;;37.25;31.60;;;-0.90;97.20;;;;;;1721626;28;20197;-73
2022/12/12 07:38:47;;;;;;;42.13;30.40;;;-0.90;97.20;;;;;;1721709;28;20207;-73
2022/12/12 07:39:37;;;;;;;33.53;29.23;;;-0.80;97.20;;;;;;1721595;28;20247;-73
2022/12/12 07:40:29;;;;;;;34.17;29.03;;;-0.80;97.20;;;;;;1721246;28;20209;-74
2022/12/12 07:41:20;;;;;;;33.13;27.35;;;-0.80;97.20;;;;;;1721182;28;20217;-73
2022/12/12 07:42:12;;;;;;;32.07;27.47;;;-0.80;97.20;;;;;;1721735;28;20201;-73
2022/12/12 07:43:03;;;;;;;29.42;26.23;;;-0.90;97.20;;;;;;1721573;28;20448;-73
2022/12/12 07:43:54;;;;;;;27.60;24.52;;;-0.80;97.20;;;;;;1719798;28;20275;-73
2022/12/12 07:44:45;;;;;;;31.10;26.70;;;-0.80;97.20;;;;;;1721435;28;20216;-73
2022/12/12 07:45:37;;;;;;;30.83;26.47;;;-0.80;97.20;;;;;;1721584;28;20208;-73
2022/12/12 07:46:28;;;;;;;30.20;25.65;;;-0.80;97.20;;;;;;1721534;28;20212;-72
2022/12/12 07:47:19;;;;;;;31.35;26.60;;;-0.80;97.20;;;;;;1721455;28;20692;-72
2022/12/12 07:48:11;;;;;;;30.07;26.27;;;-0.70;97.20;;;;;;1721591;28;20651;-72
2022/12/12 07:49:04;;;;;;;29.90;26.23;;;-0.70;97.20;;;;;;1721635;28;20220;-72
2022/12/12 07:49:55;;;;;;;28.27;25.00;;;-0.70;97.20;;;;;;1721102;28;20204;-72
2022/12/12 07:50:46;;;;;;;29.07;25.17;;;-0.70;97.20;;;;;;1721576;28;20311;-71
2022/12/12 07:51:38;;;;;;;29.65;25.65;;;-0.60;97.20;;;;;;1721235;28;20198;-72
2022/12/12 07:52:29;;;;;;;30.08;26.20;;;-0.60;97.20;;;;;;1721548;28;20247;-71
2022/12/12 07:53:21;;;;;;;28.40;25.33;;;-0.60;97.20;;;;;;1721756;28;20232;-71
2022/12/12 07:54:11;;;;;;;28.95;24.92;;;-0.60;97.20;;;;;;1721475;28;20667;-72
2022/12/12 07:55:04;;;;;;;28.73;25.07;;;-0.60;97.20;;;;;;1721605;28;20636;-72
2022/12/12 07:55:55;;;;;;;30.30;25.80;;;-0.60;97.20;;;;;;1721545;28;20205;-72
2022/12/12 07:56:47;;;;;;;30.52;25.05;;;-0.60;97.20;;;;;;1721257;28;20228;-72
2022/12/12 07:57:38;;;;;;;28.52;25.25;;;-0.50;97.20;;;;;;1721545;28;20229;-72
2022/12/12 07:58:30;;;;;;;27.52;24.60;;;-0.50;97.20;;;;;;1721499;28;20224;-72
2022/12/12 07:59:22;;;;;;;36.45;24.38;;;-0.50;97.20;;;;;;1721713;28;20220;-72
2022/12/12 08:00:13;;;;;;;31.67;24.85;;;-0.50;97.20;;;;;;1720929;28;20694;-72
2022/12/12 08:01:10;;;;;;;28.05;25.05;;;-0.50;97.20;;;;;;1721059;28;20205;-72
2022/12/12 08:02:01;;;;;;;30.50;25.55;;;-0.50;97.20;;;;;;1721635;28;20209;-72
2022/12/12 08:02:52;;;;;;;28.73;24.85;;;-0.50;97.20;;;;;;1721381;28;20217;-72
2022/12/12 08:03:45;;;;;;;27.73;24.63;;;-0.50;97.20;;;;;;1721625;28;20205;-72
2022/12/12 08:04:37;;;;;;;27.42;23.77;;;-0.50;97.20;;;;;;1721401;28;20201;-72
2022/12/12 08:05:29;;;;;;;30.90;26.60;;;-0.50;97.20;;;;;;1721470;28;20240;-72
2022/12/12 08:06:22;;;;;;;27.45;24.27;;;-0.50;97.20;;;;;;1721398;28;20205;-71
2022/12/12 08:07:13;;;;;;;28.38;24.88;;;-0.50;97.20;;;;;;1721299;28;20212;-72
2022/12/12 08:08:05;;;;;;;30.60;25.17;;;-0.50;97.20;;;;;;1721630;28;20207;-71
2022/12/12 08:08:57;;;;;;;26.05;23.10;;;-0.50;97.20;;;;;;1721634;28;20229;-71
2022/12/12 08:09:47;;;;;;;28.02;24.10;;;-0.40;97.20;;;;;;1721400;28;20213;-71
2022/12/12 08:10:39;;;;;;;28.10;24.67;;;-0.40;97.20;;;;;;1720918;28;20217;-72
2022/12/12 08:11:31;;;;;;;29.45;25.35;;;-0.40;97.20;;;;;;1721085;28;20217;-72
2022/12/12 08:12:22;;;;;;;25.77;22.95;;;-0.30;97.20;;;;;;1721619;28;20201;-72
2022/12/12 08:13:14;;;;;;;28.20;24.23;;;-0.30;97.20;;;;;;1721381;28;20205;-72
2022/12/12 08:14:05;;;;;;;27.80;24.52;;;-0.40;97.20;;;;;;1721502;28;20444;-72
2022/12/12 08:14:57;;;;;;;28.52;23.88;;;-0.40;97.20;;;;;;1721409;28;20204;-72
2022/12/12 08:15:48;;;;;;;28.13;24.92;;;-0.40;97.20;;;;;;1721388;28;20216;-72
2022/12/12 08:16:40;;;;;;;27.47;24.47;;;-0.40;97.20;;;;;;1721227;28;20203;-72
2022/12/12 08:17:30;;;;;;;28.15;24.92;;;-0.40;97.20;;;;;;1721467;28;20213;-71
2022/12/12 08:18:22;;;;;;;27.30;24.03;;;-0.40;97.20;;;;;;1721496;28;20203;-72
2022/12/12 08:19:13;;;;;;;27.65;24.65;;;-0.40;97.20;;;;;;1721338;28;20448;-71
2022/12/12 08:20:07;;;;;;;27.70;24.73;;;-0.40;97.20;;;;;;1720955;28;20207;-72
2022/12/12 08:20:58;;;;;;;31.25;26.05;;;-0.40;97.20;;;;;;1721066;28;20225;-72
2022/12/12 08:21:50;;;;;;;31.40;26.43;;;-0.40;97.20;;;;;;1714531;28;20228;-72
2022/12/12 08:22:41;;;;;;;26.90;24.02;;;-0.40;97.20;;;;;;1714645;28;20452;-71
2022/12/12 08:23:32;;;;;;;26.90;23.80;;;-0.40;97.20;;;;;;1720947;28;20207;-72
2022/12/12 08:24:24;;;;;;;27.58;24.63;;;-0.40;97.20;;;;;;1721478;28;20694;-71
2022/12/12 08:25:15;;;;;;;29.73;26.52;;;-0.40;97.20;;;;;;1720785;28;20206;-72
2022/12/12 08:26:08;;;;;;;28.77;24.60;;;-0.40;97.20;;;;;;1721344;28;20205;-72
2022/12/12 08:26:58;;;;;;;29.38;24.98;;;-0.40;97.20;;;;;;1721085;28;20228;-72
2022/12/12 08:27:50;;;;;;;26.87;23.97;;;-0.40;97.20;;;;;;1721248;28;20202;-71
2022/12/12 08:28:44;;;;;;;27.70;24.70;;;-0.40;97.20;;;;;;1721416;28;20208;-72
2022/12/12 08:29:35;;;;;;;28.02;24.88;;;-0.30;97.20;;;;;;1721264;28;20206;-72
2022/12/12 08:30:28;;;;;;;29.20;25.10;;;-0.30;97.20;;;;;;1720707;28;20209;-72
2022/12/12 08:31:20;;;;;;;30.88;25.33;;;-0.30;97.20;;;;;;1721137;28;20449;-72
2022/12/12 08:32:12;;;;;;;30.52;25.40;;;-0.20;97.20;;;;;;1721306;28;20236;-72
2022/12/12 08:33:03;;;;;;;27.02;24.20;;;-0.20;97.20;;;;;;1721498;28;20224;-72
2022/12/12 08:33:55;;;;;;;31.15;25.25;;;-0.20;97.20;;;;;;1721276;28;20197;-72
2022/12/12 08:34:46;;;;;;;28.15;25.00;;;-0.10;97.20;;;;;;1721359;28;20208;-71
2022/12/12 08:35:39;;;;;;;28.38;25.00;;;-0.10;97.20;;;;;;1721261;28;20208;-72
2022/12/12 08:36:33;;;;;;;26.83;23.05;;;0.00;97.20;;;;;;1721251;28;20235;-72
2022/12/12 08:37:24;;;;;;;26.60;23.77;;;0.00;97.20;;;;;;1721140;28;20313;-72
2022/12/12 08:38:16;;;;;;;28.87;22.97;;;0.00;97.20;;;;;;1721461;28;20436;-72
2022/12/12 08:39:10;;;;;;;30.25;24.63;;;0.00;97.20;;;;;;1721155;28;20205;-71
2022/12/12 08:40:01;;;;;;;27.77;24.00;;;0.00;97.20;;;;;;1720829;28;20205;-72
2022/12/12 08:40:52;;;;;;;28.73;25.63;;;0.00;97.20;;;;;;1721178;28;20225;-72
2022/12/12 08:41:46;;;;;;;27.35;24.55;;;0.00;97.20;;;;;;1720921;28;20480;-72
2022/12/12 08:42:38;;;;;;;27.65;24.75;;;0.10;97.20;;;;;;1721235;28;20242;-71
2022/12/12 08:43:29;;;;;;;27.80;24.02;;;0.10;97.20;;;;;;1721188;28;20216;-72
2022/12/12 08:44:21;;;;;;;26.27;23.37;;;0.20;97.20;;;;;;1721221;28;20236;-71
2022/12/12 08:45:12;;;;;;;29.70;25.23;;;0.20;97.20;;;;;;1721277;28;20205;-72
2022/12/12 08:46:05;;;;;;;30.33;26.70;;;0.30;97.20;;;;;;1721330;28;20213;-72
2022/12/12 08:46:57;;;;;;;26.77;23.85;;;0.30;97.20;;;;;;1720946;28;20449;-72
2022/12/12 08:47:47;;;;;;;32.00;25.10;;;0.30;97.20;;;;;;1721152;28;20212;-72
2022/12/12 08:48:39;;;;;;;28.53;25.43;;;0.30;97.20;;;;;;1721204;28;20212;-72
2022/12/12 08:49:30;;;;;;;28.98;25.33;;;0.40;97.20;;;;;;1721137;28;20266;-72
2022/12/12 08:50:22;;;;;;;29.67;26.20;;;0.40;97.20;;;;;;1720727;28;20651;-72
2022/12/12 08:51:16;;;;;;;26.77;23.75;;;0.50;97.20;;;;;;1720660;28;20197;-72
2022/12/12 08:52:08;;;;;;;26.42;23.50;;;0.50;97.20;;;;;;1721046;28;20664;-72
2022/12/12 08:53:00;;;;;;;26.98;24.08;;;0.60;97.20;;;;;;1721043;28;20240;-72
2022/12/12 08:53:53;;;;;;;30.52;25.05;;;0.70;97.20;;;;;;1721201;28;20208;-72
2022/12/12 08:54:43;;;;;;;29.83;25.45;;;0.70;97.20;;;;;;1721173;28;20231;-72
2022/12/12 08:55:35;;;;;;;28.83;25.10;;;0.80;97.20;;;;;;1721123;28;20228;-72
2022/12/12 08:56:27;;;;;;;27.02;24.08;;;0.80;97.20;;;;;;1721226;28;20249;-72
2022/12/12 08:57:18;;;;;;;27.58;23.05;;;0.90;97.20;;;;;;1720911;28;20205;-72
2022/12/12 08:58:09;;;;;;;27.30;24.33;;;0.90;97.20;;;;;;1721075;28;20201;-72
2022/12/12 08:59:01;;;;;;;28.45;23.35;;;1.00;97.20;;;;;;1721236;28;20201;-72
2022/12/12 08:59:52;;;;;;;28.83;24.48;;;1.10;97.20;;;;;;1720817;28;20312;-72
2022/12/12 09:00:44;;;;;;;27.17;23.15;;;1.30;97.20;;;;;;1721086;28;20233;-71
2022/12/12 09:01:35;;;;;;;25.67;22.88;;;1.40;97.20;;;;;;1720635;28;20229;-72
2022/12/12 09:02:27;;;;;;;28.03;24.30;;;1.70;97.20;;;;;;1721103;28;20209;-72
2022/12/12 09:03:19;;;;;;;26.38;23.60;;;1.90;97.20;;;;;;1720991;28;20208;-72
2022/12/12 09:04:10;;;;;;;28.63;24.23;;;2.00;97.20;;;;;;1721148;28;20284;-72
2022/12/12 09:05:01;;;;;;;28.05;23.35;;;2.10;97.20;;;;;;1721125;28;20209;-72
2022/12/12 09:05:53;;;;;;;29.40;24.33;;;2.20;97.20;;;;;;1721040;28;20494;-72
2022/12/12 09:06:46;;;;;;;31.17;24.80;;;2.20;97.20;;;;;;1720817;28;20452;-72
2022/12/12 09:07:37;;;;;;;27.98;24.15;;;2.20;97.20;;;;;;1721092;28;20205;-72
2022/12/12 09:08:29;;;;;;;26.70;23.63;;;2.20;97.20;;;;;;1721193;28;20668;-72
2022/12/12 09:09:19;;;;;;;27.75;23.73;;;2.10;97.20;;;;;;1721177;28;20212;-72
2022/12/12 09:10:11;;;;;;;27.37;23.47;;;2.10;97.20;;;;;;1720355;28;20204;-72
2022/12/12 09:11:02;;;;;;;26.65;23.48;;;2.10;97.20;;;;;;1721167;28;20205;-71
2022/12/12 09:11:54;;;;;;;28.33;24.33;;;2.10;97.20;;;;;;1720896;28;20663;-72
2022/12/12 09:12:45;;;;;;;27.98;22.35;;;2.10;97.20;;;;;;1721102;28;20205;-72
2022/12/12 09:13:37;;;;;;;25.37;22.63;;;2.20;97.20;;;;;;1721043;28;20217;-71
2022/12/12 09:14:27;;;;;;;31.88;23.75;;;2.20;97.20;;;;;;1721002;28;20563;-72
2022/12/12 09:15:19;;;;;;;26.77;22.47;;;2.50;97.20;;;;;;1721113;28;20198;-72
2022/12/12 09:16:11;;;;;;;25.65;22.50;;;2.60;97.20;;;;;;1721050;28;20212;-72
2022/12/12 09:17:02;;;;;;;26.00;21.85;;;2.60;97.20;;;;;;1720931;28;20259;-72
2022/12/12 09:17:53;;;;;;;27.40;22.67;;;2.70;97.20;;;;;;1720952;28;20209;-72
2022/12/12 09:18:45;;;;;;;26.60;22.67;;;2.70;97.20;;;;;;1721162;28;20204;-72
2022/12/12 09:19:37;;;;;;;26.00;22.23;;;2.70;97.20;;;;;;1721022;28;20202;-72
2022/12/12 09:20:28;;;;;;;29.27;23.08;;;2.80;97.20;;;;;;1720363;28;20205;-72
2022/12/12 09:21:20;;;;;;;26.87;22.13;;;2.80;97.20;;;;;;1720711;28;20220;-72
2022/12/12 09:22:12;;;;;;;27.10;23.15;;;2.70;97.20;;;;;;1721012;28;20221;-71
2022/12/12 09:23:04;;;;;;;26.05;22.05;;;2.70;97.20;;;;;;1721002;28;20304;-72
2022/12/12 09:23:55;;;;;;;27.80;22.88;;;2.60;97.20;;;;;;1720922;28;20205;-72
2022/12/12 09:24:47;;;;;;;25.92;23.13;;;2.60;97.20;;;;;;1721018;28;20197;-72
2022/12/12 09:25:38;;;;;;;28.23;24.35;;;2.60;97.20;;;;;;1720967;28;20581;-72
2022/12/12 09:26:29;;;;;;;24.42;21.70;;;2.60;97.20;;;;;;1721098;28;20212;-72
2022/12/12 09:27:21;;;;;;;30.27;23.70;;;2.60;97.20;;;;;;1720744;28;20211;-72
2022/12/12 09:28:13;;;;;;;25.38;22.02;;;2.60;97.20;;;;;;1720848;28;20208;-72
2022/12/12 09:29:04;;;;;;;27.00;22.90;;;2.60;97.20;;;;;;1721000;28;20679;-72
2022/12/12 09:29:55;;;;;;;27.02;22.75;;;2.60;97.20;;;;;;1720318;28;20208;-72
2022/12/12 09:30:47;;;;;;;27.27;22.67;;;2.60;97.20;;;;;;1720838;28;20233;-72
2022/12/12 09:31:38;;;;;;;28.00;22.63;;;2.60;97.20;;;;;;1720680;28;20194;-72
2022/12/12 09:32:29;;;;;;;27.33;23.07;;;2.50;97.20;;;;;;1721035;28;20212;-71
2022/12/12 09:33:20;;;;;;;26.75;22.77;;;2.60;97.20;;;;;;1721009;28;20208;-71
2022/12/12 09:34:12;;;;;;;26.30;22.03;;;2.60;97.20;;;;;;1720852;28;20207;-72
2022/12/12 09:35:03;;;;;;;26.20;21.67;;;2.70;97.20;;;;;;1721013;28;20438;-72
2022/12/12 09:35:59;;;;;;;24.92;22.23;;;2.80;97.20;;;;;;1720823;28;20268;-72
2022/12/12 09:36:50;;;;;;;27.20;22.60;;;2.90;97.20;;;;;;1719822;28;20202;-72
2022/12/12 09:37:43;;;;;;;26.80;22.83;;;3.10;97.20;;;;;;1720923;28;20248;-72
2022/12/12 09:38:34;;;;;;;26.10;22.02;;;3.20;97.20;;;;;;1720617;28;20209;-72
2022/12/12 09:39:26;;;;;;;26.73;22.92;;;3.30;97.20;;;;;;1720659;28;20202;-72
2022/12/12 09:40:20;;;;;;;24.65;21.58;;;3.50;97.20;;;;;;1720182;28;20686;-72
2022/12/12 09:41:15;;;;;;;25.15;21.80;;;3.60;97.20;;;;;;1720466;28;20193;-72
2022/12/12 09:42:11;;;;;;;27.27;22.55;;;3.70;97.20;;;;;;1714197;28;20268;-72
2022/12/12 09:43:03;;;;;;;27.75;23.20;;;3.90;97.20;;;;;;1714280;28;20699;-72
2022/12/12 09:43:57;;;;;;;25.10;21.27;;;4.00;97.20;;;;;;1714151;28;20217;-72
2022/12/12 09:44:50;;;;;;;26.58;23.38;;;4.20;97.20;;;;;;1714218;28;20202;-72
2022/12/12 09:45:41;;;;;;;25.67;22.67;;;4.30;97.20;;;;;;1714251;28;20672;-72
2022/12/12 09:46:37;;;;;;;27.90;23.05;;;4.30;97.20;;;;;;1714029;28;20687;-72
2022/12/12 09:47:35;;;;;;;25.65;22.83;;;4.40;97.20;;;;;;1714139;28;20272;-71
2022/12/12 09:48:35;;;;;;;27.17;22.35;;;4.50;97.20;;;;;;1714142;28;20210;-72
2022/12/12 09:49:36;;;;;;;28.67;22.45;;;4.60;97.20;;;;;;1714311;28;20244;-72
2022/12/12 09:50:31;;;;;;;30.77;23.88;;;4.70;97.20;;;;;;1713566;28;20209;-71
2022/12/12 09:51:23;;;;;;;29.50;23.50;;;4.70;97.20;;;;;;1715392;28;20202;-72
2022/12/12 09:52:17;;;;;;;26.50;23.35;;;4.70;97.20;;;;;;1720832;28;20228;-72
2022/12/12 09:53:12;;;;;;;25.92;21.95;;;4.70;97.20;;;;;;1720744;28;20213;-72
2022/12/12 09:54:05;;;;;;;27.40;22.88;;;4.70;97.20;;;;;;1720955;28;20189;-72
2022/12/12 09:54:57;;;;;;;26.13;23.33;;;4.60;97.20;;;;;;1720897;28;20228;-72
2022/12/12 09:55:55;;;;;;;25.30;22.45;;;4.50;97.20;;;;;;1720759;28;20220;-72
2022/12/12 09:57:07;;;;;;;28.00;23.50;;;4.40;97.20;;;;;;1720612;28;20216;-72
2022/12/12 09:58:04;;;;;;;26.23;22.55;;;4.30;97.20;;;;;;1720758;28;20193;-72
2022/12/12 09:59:01;;;;;;;24.60;21.85;;;4.20;97.20;;;;;;1720786;28;20198;-71
2022/12/12 09:59:57;;;;;;;26.73;23.83;;;4.10;97.20;;;;;;1720524;28;20476;-72
2022/12/12 10:00:57;;;;;;;24.08;21.45;;;4.00;97.20;;;;;;1720631;28;20221;-72
2022/12/12 10:01:59;;;;;;;25.67;22.48;;;3.90;97.20;;;;;;1720353;28;20201;-72
2022/12/12 10:03:14;;;;;;;27.95;23.60;;;3.80;97.20;;;;;;1720781;28;20216;-72
2022/12/12 10:04:15;;;;;;;25.88;22.23;;;3.70;97.20;;;;;;1720783;28;20197;-72
2022/12/12 10:05:19;;;;;;;29.17;23.30;;;3.50;97.20;;;;;;1720882;28;20213;-72
2022/12/12 10:06:12;;;;;;;27.33;22.77;;;3.30;97.20;;;;;;1720684;28;20582;-72
2022/12/12 10:07:10;;;;;;;27.23;22.95;;;3.20;97.20;;;;;;1720606;28;20201;-72
2022/12/12 10:08:11;;;;;;;25.95;21.92;;;3.10;97.20;;;;;;1720828;28;20197;-72
2022/12/12 10:09:21;;;;;;;26.73;23.10;;;3.10;97.20;;;;;;1720762;28;20667;-72
2022/12/12 10:10:19;;;;;;;27.38;24.17;;;3.00;97.20;;;;;;1719991;28;20277;-72
2022/12/12 10:12:22;;;;;;;27.67;23.42;;;2.90;97.20;;;;;;1713024;28;20202;-72
2022/12/12 10:13:16;;;;;;;27.75;23.33;;;2.80;97.20;;;;;;1714100;28;20606;-71
2022/12/12 10:14:11;;;;;;;26.15;21.05;;;2.70;97.20;;;;;;1713934;28;20204;-72
2022/12/12 10:15:05;;;;;;;26.63;22.10;;;2.70;97.20;;;;;;1714153;28;20587;-72
2022/12/12 10:16:02;;;;;;;25.83;22.10;;;2.60;97.20;;;;;;1714006;28;20703;-72
2022/12/12 10:16:54;;;;;;;25.45;22.60;;;2.50;97.20;;;;;;1713687;28;20278;-72
2022/12/12 10:17:47;;;;;;;26.92;23.27;;;2.50;97.20;;;;;;1714031;28;20692;-72
2022/12/12 10:18:42;;;;;;;26.08;21.65;;;2.40;97.20;;;;;;1714033;28;20214;-72
2022/12/12 10:19:38;;;;;;;28.65;22.95;;;2.40;97.20;;;;;;1713924;28;20198;-72
2022/12/12 10:20:33;;;;;;;27.02;23.40;;;2.30;97.20;;;;;;1713371;28;20194;-72
2022/12/12 10:21:28;;;;;;;27.63;23.10;;;2.30;97.20;;;;;;1714547;28;20680;-72
2022/12/12 10:22:32;;;;;;;26.23;22.77;;;2.20;97.20;;;;;;1720631;28;20216;-72
2022/12/12 10:23:32;;;;;;;29.17;24.52;;;2.20;97.20;;;;;;1720610;28;20193;-72
2022/12/12 10:24:32;;;;;;;28.20;23.55;;;2.10;97.20;;;;;;1720531;28;20194;-72
2022/12/12 10:25:31;;;;;;;27.50;23.45;;;2.10;97.20;;;;;;1720707;28;20197;-72
2022/12/12 10:26:26;;;;;;;27.83;23.73;;;2.10;97.20;;;;;;1720478;28;20671;-72
2022/12/12 10:27:17;;;;;;;25.70;22.15;;;2.10;97.20;;;;;;1720433;28;20209;-72
2022/12/12 10:28:11;;;;;;;28.37;24.17;;;2.10;97.20;;;;;;1720534;28;20205;-72
2022/12/12 10:29:11;;;;;;;26.17;22.13;;;2.10;97.20;;;;;;1720678;28;20483;-72
2022/12/12 10:30:14;;;;;;;26.10;22.50;;;2.10;97.20;;;;;;1720093;28;20232;-72
2022/12/12 10:31:20;;;;;;;27.95;23.02;;;2.10;97.20;;;;;;1720566;28;20194;-72
2022/12/12 10:32:22;;;;;;;29.60;23.38;;;2.10;97.20;;;;;;1720598;28;20214;-72
2022/12/12 10:33:21;;;;;;;31.63;25.88;;;2.10;97.20;;;;;;1720560;28;20209;-72